Fantasy — H3GS — position and weather

sailwx.info

Track history (hours):
 
Tides and Currents Weather Stations Pressure Air Temp Water Temp Dewpoint Dewpoint Depression Visibility Wind Speed Wind Dir Waves Ship Positions

Fantasy

Operator: Carnival Cruise Lines

Last reported at 2018-Oct-23 22:48 UTC. Time now 2018-Oct-24 04:59 UTC.
Position N 20°36' W 086°56'.

Type: Ship. MMSI: 353486000.

Date/timePositionNaut miles runAvg speedWind from/ knotsBaromVisibWave heightAir tempDewpointWater temp
2018-Oct-23 22:48N 20°36' W 086°56'413.0
2018-Oct-23 22:30N 20°32' W 086°58'3 7.7
2018-Oct-23 22:03N 20°29' W 086°59'0 2.7
2018-Oct-23 22:00N 20°29' W 086°59'0 0.4
2018-Oct-23 21:28N 20°29' W 086°59'0 0.0
2018-Oct-23 21:03N 20°29' W 086°59'0 0.0
2018-Oct-23 21:00N 20°29' W 086°59'0 0.0
2018-Oct-23 20:27N 20°29' W 086°59'0 0.0
2018-Oct-23 20:03N 20°29' W 086°59'0 0.0
2018-Oct-23 20:00N 20°29' W 086°59'0 0.0
2018-Oct-23 19:30N 20°29' W 086°59'0 0.0
2018-Oct-23 19:02N 20°29' W 086°59'0 0.0
2018-Oct-23 19:00N 20°29' W 086°59'0 0.0
2018-Oct-23 18:29N 20°29' W 086°59'0 0.0
2018-Oct-23 17:59N 20°29' W 086°59'0 0.0
2018-Oct-23 17:29N 20°29' W 086°59'0 0.0
2018-Oct-23 17:02N 20°29' W 086°59'0 0.0
2018-Oct-23 16:59N 20°29' W 086°59'0 0.0
2018-Oct-23 16:28N 20°29' W 086°59'0 0.0
2018-Oct-23 16:01N 20°29' W 086°59'0 0.0
2018-Oct-23 15:58N 20°29' W 086°59'0 0.0
2018-Oct-23 15:25N 20°29' W 086°59'0 0.0
2018-Oct-23 14:58N 20°29' W 086°59'0 0.0
2018-Oct-23 14:28N 20°29' W 086°59'0 0.1
2018-Oct-23 13:30N 20°29' W 086°59'3 6.5
2018-Oct-23 13:03N 20°32' W 086°59'0 7.1
2018-Oct-23 13:00N 20°32' W 086°59'  
2018-Oct-19 12:00N 24°36' W 087°30'24217.4 100 / 301017.010.8 28.023.729.0
2018-Oct-18 22:06N 20°36' W 086°56'115.6
2018-Oct-18 22:03N 20°35' W 086°57'115.3
2018-Oct-18 22:01N 20°35' W 086°57'510.5
2018-Oct-18 21:31N 20°30' W 086°59'1 2.5
2018-Oct-18 21:03N 20°29' W 086°59'0 0.1
2018-Oct-18 20:57N 20°29' W 086°59'0 0.0
2018-Oct-18 20:30N 20°29' W 086°59'0 0.0
2018-Oct-18 20:00N 20°29' W 086°59'0 0.0
2018-Oct-18 19:30N 20°29' W 086°59'0 0.0
2018-Oct-18 19:00N 20°29' W 086°59'0 0.0
2018-Oct-18 18:29N 20°29' W 086°59'0 0.0
2018-Oct-18 18:02N 20°29' W 086°59'0 0.0
2018-Oct-18 17:59N 20°29' W 086°59'0 0.0
2018-Oct-18 17:29N 20°29' W 086°59'0 0.0
2018-Oct-18 17:02N 20°29' W 086°59'0 0.0
2018-Oct-18 16:59N 20°29' W 086°59'0 0.0
2018-Oct-18 16:28N 20°29' W 086°59'0 0.0
2018-Oct-18 16:01N 20°29' W 086°59'0 0.0
2018-Oct-18 15:58N 20°29' W 086°59'0 0.0
2018-Oct-18 15:28N 20°29' W 086°59'0 0.0
2018-Oct-18 15:01N 20°29' W 086°59'0 0.0
2018-Oct-18 14:58N 20°29' W 086°59'0 0.0
2018-Oct-18 14:03N 20°29' W 086°59'0 0.0
2018-Oct-18 14:00N 20°29' W 086°59'0 0.0
2018-Oct-18 13:30N 20°29' W 086°59'0 0.0
2018-Oct-18 13:03N 20°29' W 086°59'0 0.0
2018-Oct-18 13:00N 20°29' W 086°59'0 0.3
2018-Oct-18 12:30N 20°29' W 086°59'3 6.2
2018-Oct-18 12:03N 20°31' W 087°01'0 9.6
2018-Oct-18 12:00N 20°31' W 087°01'44 1.8
2018-Oct-17 12:00N 19°48' W 086°48'   100 / 261012.010.8 27.022.629.0
2018-Oct-14 12:00N 24°42' W 087°30'9819.6 080 / 25 10.8 27.024.129.0
2018-Oct-14 07:00N 23°12' W 086°48'   130 / 131012.010.8 28.025.229.0
Track history (hours):
 
Tides and Currents Weather Stations Pressure Air Temp Water Temp Dewpoint Dewpoint Depression Visibility Wind Speed Wind Dir Waves Ship Positions

Fantasy

Operator: Carnival Cruise Lines

Last reported at 2018-Oct-23 22:48 UTC. Time now 2018-Oct-24 04:59 UTC.
Position N 20°36' W 086°56'.

Type: Ship. MMSI: 353486000.

Date/timePositionNaut miles runAvg speedWind from/ knotsBaromVisibWave heightAir tempDewpointWater temp
2018-Oct-23 22:48N 20°36' W 086°56'413.0
2018-Oct-23 22:30N 20°32' W 086°58'3 7.7
2018-Oct-23 22:03N 20°29' W 086°59'0 2.7
2018-Oct-23 22:00N 20°29' W 086°59'0 0.4
2018-Oct-23 21:28N 20°29' W 086°59'0 0.0
2018-Oct-23 21:03N 20°29' W 086°59'0 0.0
2018-Oct-23 21:00N 20°29' W 086°59'0 0.0
2018-Oct-23 20:27N 20°29' W 086°59'0 0.0
2018-Oct-23 20:03N 20°29' W 086°59'0 0.0
2018-Oct-23 20:00N 20°29' W 086°59'0 0.0
2018-Oct-23 19:30N 20°29' W 086°59'0 0.0
2018-Oct-23 19:02N 20°29' W 086°59'0 0.0
2018-Oct-23 19:00N 20°29' W 086°59'0 0.0
2018-Oct-23 18:29N 20°29' W 086°59'0 0.0
2018-Oct-23 17:59N 20°29' W 086°59'0 0.0
2018-Oct-23 17:29N 20°29' W 086°59'0 0.0
2018-Oct-23 17:02N 20°29' W 086°59'0 0.0
2018-Oct-23 16:59N 20°29' W 086°59'0 0.0
2018-Oct-23 16:28N 20°29' W 086°59'0 0.0
2018-Oct-23 16:01N 20°29' W 086°59'0 0.0
2018-Oct-23 15:58N 20°29' W 086°59'0 0.0
2018-Oct-23 15:25N 20°29' W 086°59'0 0.0
2018-Oct-23 14:58N 20°29' W 086°59'0 0.0
2018-Oct-23 14:28N 20°29' W 086°59'0 0.1
2018-Oct-23 13:30N 20°29' W 086°59'3 6.5
2018-Oct-23 13:03N 20°32' W 086°59'0 7.1
2018-Oct-23 13:00N 20°32' W 086°59'  
2018-Oct-19 12:00N 24°36' W 087°30'24217.4 100 / 301017.010.8 28.023.729.0
2018-Oct-18 22:06N 20°36' W 086°56'115.6
2018-Oct-18 22:03N 20°35' W 086°57'115.3
2018-Oct-18 22:01N 20°35' W 086°57'510.5
2018-Oct-18 21:31N 20°30' W 086°59'1 2.5
2018-Oct-18 21:03N 20°29' W 086°59'0 0.1
2018-Oct-18 20:57N 20°29' W 086°59'0 0.0
2018-Oct-18 20:30N 20°29' W 086°59'0 0.0
2018-Oct-18 20:00N 20°29' W 086°59'0 0.0
2018-Oct-18 19:30N 20°29' W 086°59'0 0.0
2018-Oct-18 19:00N 20°29' W 086°59'0 0.0
2018-Oct-18 18:29N 20°29' W 086°59'0 0.0
2018-Oct-18 18:02N 20°29' W 086°59'0 0.0
2018-Oct-18 17:59N 20°29' W 086°59'0 0.0
2018-Oct-18 17:29N 20°29' W 086°59'0 0.0
2018-Oct-18 17:02N 20°29' W 086°59'0 0.0
2018-Oct-18 16:59N 20°29' W 086°59'0 0.0
2018-Oct-18 16:28N 20°29' W 086°59'0 0.0
2018-Oct-18 16:01N 20°29' W 086°59'0 0.0
2018-Oct-18 15:58N 20°29' W 086°59'0 0.0
2018-Oct-18 15:28N 20°29' W 086°59'0 0.0
2018-Oct-18 15:01N 20°29' W 086°59'0 0.0
2018-Oct-18 14:58N 20°29' W 086°59'0 0.0
2018-Oct-18 14:03N 20°29' W 086°59'0 0.0
2018-Oct-18 14:00N 20°29' W 086°59'0 0.0
2018-Oct-18 13:30N 20°29' W 086°59'0 0.0
2018-Oct-18 13:03N 20°29' W 086°59'0 0.0
2018-Oct-18 13:00N 20°29' W 086°59'0 0.3
2018-Oct-18 12:30N 20°29' W 086°59'3 6.2
2018-Oct-18 12:03N 20°31' W 087°01'0 9.6
2018-Oct-18 12:00N 20°31' W 087°01'44 1.8
2018-Oct-17 12:00N 19°48' W 086°48'   100 / 261012.010.8 27.022.629.0
2018-Oct-14 12:00N 24°42' W 087°30'9819.6 080 / 25 10.8 27.024.129.0
2018-Oct-14 07:00N 23°12' W 086°48'   130 / 131012.010.8 28.025.229.0

Dump ship's entire track history